KCBK/CBK METAR and TAF weather

Enter ICAO airport designator
Station Type Date Time Source
KCBK METAR 2019/12/13 14:15 UTC NOAA

KCBK 131415Z AUTO 31008KT 10SM CLR 00/M03 A2990 RMK AO2 PWINO


Station Type Date Time Source
KCBK Decoded METAR 2019/12/13 14:15 UTC NOAA

Station name not available
Dec 13, 2019 - 09:15 AM EST / 2019.12.13 1415 UTC
Wind: from the NW (310 degrees) at 9 MPH (8 KT):0
Visibility: 10 mile(s):0
Sky conditions: clear
Temperature: 32 F (0 C)
Windchill: 24 F (-4 C):1
Dew Point: 26 F (-3 C)
Relative Humidity: 80%
Pressure (altimeter): 29.9 in. Hg (1012 hPa)
ob: KCBK 131415Z AUTO 31008KT 10SM CLR 00/M03 A2990 RMK AO2 PWINO
cycle: 14

Station Type Date Time Source
KCBK TAF UTC NOAA

Error!

Example: see airport list